createdAt,value
2023-03-24T05:12:54.660Z,6.83
2023-03-24T05:16:03.777Z,6.86
2023-03-24T05:19:08.111Z,6.96
2023-03-24T05:22:11.139Z,7.09
2023-03-24T05:25:13.593Z,7.28
2023-03-24T05:28:17.596Z,7.41
2023-03-24T05:31:20.839Z,7.48
2023-03-24T05:34:24.182Z,7.63
2023-03-24T05:37:27.618Z,7.79
2023-03-24T05:40:31.711Z,7.98
2023-03-24T05:43:34.749Z,8.13
2023-03-24T05:46:42.534Z,8.34
2023-03-24T05:49:46.535Z,8.61
2023-03-24T05:52:49.428Z,8.97
2023-03-24T05:55:53.765Z,9.37
2023-03-24T05:58:59.957Z,9.89
2023-03-24T06:02:04.136Z,10.59
2023-03-24T06:05:08.449Z,11.28
2023-03-24T06:08:11.731Z,12.10
2023-03-24T06:11:14.993Z,13.04
2023-03-24T06:14:18.852Z,13.81
2023-03-24T06:17:24.723Z,13.90
2023-03-24T06:20:28.047Z,14.00
2023-03-24T06:23:33.910Z,14.02
2023-03-24T06:26:36.786Z,14.22
2023-03-24T06:29:44.087Z,13.55
2023-03-24T06:32:47.288Z,13.96
2023-03-24T06:35:51.976Z,14.20
2023-03-24T06:38:54.685Z,15.65
2023-03-24T06:41:57.464Z,16.51
2023-03-24T06:45:00.035Z,17.85
2023-03-24T06:48:02.892Z,18.49
2023-03-24T06:51:06.338Z,18.74
2023-03-24T06:54:14.250Z,19.54
2023-03-24T06:57:17.957Z,20.26
2023-03-24T07:00:25.798Z,20.54
2023-03-24T07:03:29.400Z,19.81
2023-03-24T07:06:40.559Z,21.00
2023-03-24T07:09:50.475Z,21.67
2023-03-24T07:12:53.574Z,21.71
2023-03-24T07:16:00.705Z,21.49
2023-03-24T07:19:03.758Z,21.41
2023-03-24T07:22:09.820Z,20.01
2023-03-24T07:25:14.386Z,20.56
2023-03-24T07:28:17.646Z,20.09
2023-03-24T07:31:22.991Z,21.63
2023-03-24T07:34:28.625Z,22.79
2023-03-24T07:37:33.897Z,23.99
2023-03-24T07:40:36.982Z,24.54
2023-03-24T07:43:39.828Z,25.11
2023-03-24T07:46:43.253Z,24.98
2023-03-24T07:49:47.139Z,24.57
2023-03-24T07:52:50.546Z,25.40
2023-03-24T07:55:53.954Z,26.58
2023-03-24T07:58:57.462Z,28.32
2023-03-24T08:02:01.016Z,25.66
2023-03-24T08:05:06.076Z,26.88
2023-03-24T08:08:11.141Z,28.30
2023-03-24T08:11:14.126Z,29.90
2023-03-24T08:14:19.454Z,31.16
2023-03-24T08:17:22.242Z,28.94
2023-03-24T08:24:23.123Z,30.68
2023-03-24T08:27:26.028Z,26.70
2023-03-24T08:30:28.745Z,26.08
2023-03-24T08:33:32.217Z,25.09
2023-03-24T08:36:35.001Z,25.01
2023-03-24T08:39:37.988Z,24.33
2023-03-24T08:42:41.331Z,24.19
2023-03-24T08:45:44.729Z,22.69
2023-03-24T08:48:47.415Z,22.40
2023-03-24T08:51:50.246Z,22.45
2023-03-24T08:54:52.843Z,22.14
2023-03-24T08:57:56.103Z,20.85
2023-03-24T09:00:58.723Z,20.64
2023-03-24T09:04:01.580Z,21.06
2023-03-24T09:07:04.679Z,21.16
2023-03-24T09:10:10.476Z,22.03
2023-03-24T09:13:13.189Z,21.83
2023-03-24T09:16:16.463Z,22.68
2023-03-24T09:19:19.366Z,23.15
2023-03-24T09:22:24.613Z,23.44
2023-03-24T09:25:27.230Z,22.73
2023-03-24T09:28:30.338Z,22.51
2023-03-24T09:31:33.192Z,22.01
2023-03-24T09:34:38.363Z,21.05
2023-03-24T09:37:43.043Z,21.08
2023-03-24T09:40:49.965Z,21.25
2023-03-24T09:43:57.458Z,20.99
2023-03-24T09:47:14.116Z,20.96
2023-03-24T09:50:23.156Z,21.59
2023-03-24T09:53:52.064Z,22.52
2023-03-24T09:56:55.918Z,22.25
2023-03-24T09:59:58.927Z,21.67
2023-03-24T10:03:14.668Z,22.49
2023-03-24T10:06:25.970Z,22.64
2023-03-24T10:09:31.591Z,22.99
2023-03-24T10:12:39.922Z,22.61
2023-03-24T10:15:52.234Z,23.25
2023-03-24T10:19:11.539Z,23.32
2023-03-24T10:22:29.597Z,22.85
2023-03-24T10:25:42.348Z,22.27
2023-03-24T10:28:49.779Z,21.57
2023-03-24T10:32:04.139Z,21.99
2023-03-24T10:35:10.089Z,22.74
2023-03-24T10:38:18.972Z,23.36
2023-03-24T10:41:24.848Z,24.52
2023-03-24T10:44:28.169Z,24.20
2023-03-24T10:47:32.976Z,23.84
2023-03-24T10:50:41.329Z,23.41
2023-03-24T10:53:48.535Z,23.73
2023-03-24T10:57:17.872Z,22.85
2023-03-24T11:00:29.890Z,23.44
2023-03-24T11:03:36.632Z,24.11
2023-03-24T11:06:52.670Z,26.07
2023-03-24T11:10:08.330Z,26.96
2023-03-24T11:13:28.409Z,27.49
2023-03-24T11:16:36.691Z,25.76
2023-03-24T11:19:57.135Z,24.44
2023-03-24T11:23:07.365Z,23.45
2023-03-24T11:26:24.339Z,23.46
2023-03-24T11:29:30.350Z,23.09
2023-03-24T11:32:33.694Z,23.46
2023-03-24T11:38:43.825Z,25.24
2023-03-24T11:41:52.399Z,24.27
2023-03-24T11:44:56.504Z,23.87
2023-03-24T11:48:02.178Z,23.59
2023-03-24T11:51:07.079Z,22.97
2023-03-24T11:54:14.417Z,23.01
2023-03-24T11:57:46.145Z,23.38
2023-03-24T12:01:15.916Z,22.95
2023-03-24T12:04:25.242Z,22.53
2023-03-24T12:07:39.598Z,22.47
2023-03-24T12:10:58.155Z,22.24
2023-03-24T12:14:04.903Z,22.23
2023-03-24T12:21:06.237Z,22.33
2023-03-24T12:24:47.743Z,22.55
2023-03-24T12:28:04.364Z,22.75
2023-03-24T12:31:12.997Z,22.86
2023-03-24T12:34:52.812Z,22.75
2023-03-24T12:38:18.250Z,22.40
2023-03-24T12:41:42.616Z,22.65
2023-03-24T12:45:16.958Z,22.51
2023-03-24T12:49:02.836Z,22.64
2023-03-24T12:52:17.057Z,22.79
2023-03-24T12:55:49.390Z,22.76
2023-03-24T12:59:10.547Z,22.89
2023-03-24T13:02:25.355Z,22.99
2023-03-24T13:05:35.542Z,23.18
2023-03-24T13:08:41.000Z,23.05
2023-03-24T13:12:10.468Z,23.22
2023-03-24T13:15:16.327Z,23.28
2023-03-24T13:18:39.644Z,23.17
2023-03-24T13:21:44.013Z,23.17
2023-03-24T13:24:48.427Z,22.99
2023-03-24T13:27:57.052Z,22.83
2023-03-24T13:31:03.401Z,22.74
2023-03-24T13:34:34.065Z,22.75
2023-03-24T13:37:57.455Z,22.33
2023-03-24T13:41:05.237Z,22.30
2023-03-24T13:44:17.614Z,22.35
2023-03-24T13:47:20.329Z,22.30
2023-03-24T13:50:26.093Z,22.39
2023-03-24T13:53:54.112Z,22.67
2023-03-24T13:57:09.140Z,22.58
2023-03-24T14:00:26.960Z,22.75
2023-03-24T14:03:39.403Z,22.60
2023-03-24T14:06:49.888Z,22.64
2023-03-24T14:10:23.032Z,22.79
2023-03-24T14:13:37.613Z,22.79
2023-03-24T14:16:43.267Z,22.90
2023-03-24T14:20:10.660Z,22.74
2023-03-24T14:23:47.107Z,22.57
2023-03-24T14:26:49.798Z,22.37
2023-03-24T14:29:54.316Z,22.33
2023-03-24T14:32:59.907Z,22.39
2023-03-24T14:36:06.551Z,22.15
2023-03-24T14:39:32.406Z,21.96
2023-03-24T14:42:35.399Z,21.59
2023-03-24T14:46:00.244Z,21.67
2023-03-24T14:49:20.852Z,21.37
2023-03-24T14:52:40.139Z,21.46
2023-03-24T14:55:43.570Z,21.48
2023-03-24T14:58:50.920Z,21.59
2023-03-24T15:02:01.663Z,21.53
2023-03-24T15:05:17.094Z,21.63
2023-03-24T15:08:22.551Z,21.68
2023-03-24T15:11:28.775Z,21.63
2023-03-24T15:14:34.231Z,21.67
2023-03-24T15:17:37.275Z,21.53
2023-03-24T15:20:40.559Z,21.46
2023-03-24T15:23:47.968Z,21.50
2023-03-24T15:27:06.638Z,21.44
2023-03-24T15:30:15.086Z,21.37
2023-03-24T15:33:18.318Z,21.36
2023-03-24T15:36:23.152Z,21.13
2023-03-24T15:39:33.295Z,21.16
2023-03-24T15:42:41.420Z,21.09
2023-03-24T15:45:55.326Z,20.95
2023-03-24T15:49:04.095Z,20.84
2023-03-24T15:52:58.347Z,20.71
2023-03-24T15:56:14.520Z,20.73
2023-03-24T15:59:17.564Z,20.58
2023-03-24T16:02:45.636Z,20.47
2023-03-24T16:05:51.320Z,20.45
2023-03-24T16:08:53.956Z,20.35
2023-03-24T16:11:57.157Z,20.29
2023-03-24T16:15:00.475Z,20.30
